Wetterdaten: Woche 15.06.15 - 21.06.15 (KW25)
Datum Zeit Temperatur Luftfeuchte Luftdruck Niederschlag Windrichtung Sonnenschein Solar Wind
15.06.2015 00:00 14,9 C 98 % 1007,9 hPa 0,2 l/m N 0,00 h 0 W/m 0,4 km/h (0 Bft)
15.06.2015 01:00 14,8 C 98 % 1008,2 hPa 0,0 l/m N 0,00 h 0 W/m 0,8 km/h (0 Bft)
15.06.2015 02:00 14,9 C 99 % 1008,1 hPa 0,0 l/m N 0,00 h 0 W/m 0,3 km/h (0 Bft)
15.06.2015 03:00 14,8 C 99 % 1008,0 hPa 0,6 l/m W-SW 0,00 h 0 W/m 4,8 km/h (1 Bft)
15.06.2015 04:00 14,6 C 99 % 1008,0 hPa 1,0 l/m N-NW 0,00 h 0 W/m 9,9 km/h (2 Bft)
15.06.2015 05:00 14,5 C 99 % 1008,3 hPa 0,4 l/m NW 0,00 h 5 W/m 6,2 km/h (2 Bft)
15.06.2015 06:00 14,4 C 99 % 1008,7 hPa 2,4 l/m W-NW 0,00 h 14 W/m 8,9 km/h (2 Bft)
15.06.2015 07:00 14,5 C 99 % 1009,2 hPa 1,2 l/m W-NW 0,00 h 32 W/m 6,3 km/h (2 Bft)
15.06.2015 08:00 14,7 C 99 % 1010,1 hPa 2,0 l/m W-NW 0,00 h 51 W/m 2,5 km/h (1 Bft)
15.06.2015 09:00 15,0 C 98 % 1010,6 hPa 2,6 l/m W-NW 0,00 h 88 W/m 5,5 km/h (1 Bft)
15.06.2015 10:00 15,1 C 97 % 1011,2 hPa 1,6 l/m W-NW 0,00 h 154 W/m 6,4 km/h (2 Bft)
15.06.2015 11:00 15,6 C 95 % 1011,6 hPa 0,6 l/m W-NW 0,00 h 190 W/m 4,3 km/h (1 Bft)
15.06.2015 12:00 15,8 C 94 % 1012,3 hPa 1,6 l/m W-NW 0,00 h 136 W/m 4,0 km/h (1 Bft)
15.06.2015 13:00 16,2 C 95 % 1012,5 hPa 0,0 l/m W-NW 0,00 h 157 W/m 4,7 km/h (1 Bft)
15.06.2015 14:00 16,9 C 95 % 1012,6 hPa 0,2 l/m W-NW 0,00 h 180 W/m 7,6 km/h (2 Bft)
15.06.2015 15:00 17,1 C 94 % 1012,7 hPa 0,2 l/m NW 0,00 h 148 W/m 5,5 km/h (1 Bft)
15.06.2015 16:00 17,4 C 91 % 1012,9 hPa 0,0 l/m N-NW 0,00 h 162 W/m 5,9 km/h (2 Bft)
15.06.2015 17:00 17,3 C 91 % 1013,1 hPa 0,0 l/m N 0,00 h 142 W/m 11,0 km/h (2 Bft)
15.06.2015 18:00 16,3 C 92 % 1013,3 hPa 0,0 l/m N 0,00 h 101 W/m 10,2 km/h (2 Bft)
15.06.2015 19:00 16,4 C 91 % 1013,7 hPa 0,0 l/m N-NO 0,00 h 46 W/m 3,1 km/h (1 Bft)
15.06.2015 20:00 16,2 C 93 % 1014,0 hPa 0,0 l/m N 0,00 h 14 W/m 0,1 km/h (0 Bft)
15.06.2015 21:00 15,6 C 96 % 1014,6 hPa 0,0 l/m N 0,00 h 0 W/m 0,3 km/h (0 Bft)
15.06.2015 22:00 15,3 C 98 % 1015,1 hPa 0,0 l/m N 0,00 h 0 W/m 0,0 km/h (0 Bft)
15.06.2015 23:00 15,2 C 98 % 1015,5 hPa 0,0 l/m N 0,00 h 0 W/m 0,0 km/h (0 Bft)
16.06.2015 00:00 15,2 C 98 % 1015,8 hPa 3,6 l/m SO 0,00 h 0 W/m 4,4 km/h (1 Bft)
16.06.2015 01:00 14,2 C 98 % 1016,0 hPa 0,4 l/m N 0,00 h 0 W/m 0,4 km/h (0 Bft)
16.06.2015 02:00 14,2 C 99 % 1015,8 hPa 0,0 l/m N 0,00 h 0 W/m 1,9 km/h (1 Bft)
16.06.2015 03:00 14,1 C 99 % 1015,7 hPa 0,0 l/m SO 0,00 h 0 W/m 2,3 km/h (1 Bft)
16.06.2015 04:00 14,0 C 98 % 1015,7 hPa 0,0 l/m O-NO 0,00 h 0 W/m 5,8 km/h (1 Bft)
16.06.2015 05:00 13,9 C 98 % 1016,1 hPa 0,0 l/m N-NO 0,00 h 9 W/m 8,3 km/h (2 Bft)
16.06.2015 06:00 13,8 C 99 % 1016,4 hPa 0,0 l/m N-NO 0,00 h 24 W/m 7,5 km/h (2 Bft)
16.06.2015 07:00 13,8 C 99 % 1016,5 hPa 0,0 l/m N-NO 0,00 h 27 W/m 7,4 km/h (2 Bft)
16.06.2015 08:00 13,9 C 98 % 1016,6 hPa 0,0 l/m N-NO 0,00 h 83 W/m 6,3 km/h (2 Bft)
16.06.2015 09:00 15,1 C 94 % 1016,7 hPa 0,0 l/m N-NO 0,08 h 270 W/m 8,2 km/h (2 Bft)
16.06.2015 10:00 17,2 C 83 % 1016,5 hPa 0,0 l/m O-NO 0,83 h 685 W/m 11,3 km/h (2 Bft)
16.06.2015 11:00 18,4 C 76 % 1016,5 hPa 0,0 l/m NO 0,67 h 603 W/m 13,6 km/h (3 Bft)
16.06.2015 12:00 18,3 C 72 % 1016,6 hPa 0,0 l/m O 0,00 h 207 W/m 13,2 km/h (3 Bft)
16.06.2015 13:00 17,9 C 73 % 1016,6 hPa 0,0 l/m O-NO 0,00 h 211 W/m 10,7 km/h (2 Bft)
16.06.2015 14:00 18,2 C 71 % 1016,3 hPa 0,0 l/m NO 0,17 h 277 W/m 14,1 km/h (3 Bft)
16.06.2015 15:00 18,4 C 68 % 1015,9 hPa 0,0 l/m NO 0,08 h 191 W/m 13,8 km/h (3 Bft)
16.06.2015 16:00 18,3 C 66 % 1015,6 hPa 0,0 l/m NO 0,00 h 198 W/m 11,3 km/h (2 Bft)
16.06.2015 17:00 19,4 C 62 % 1015,4 hPa 0,0 l/m N-NO 0,42 h 357 W/m 14,9 km/h (3 Bft)
16.06.2015 18:00 18,9 C 63 % 1015,5 hPa 0,0 l/m O-NO 0,33 h 226 W/m 12,3 km/h (3 Bft)
16.06.2015 19:00 18,1 C 67 % 1015,7 hPa 0,0 l/m N-NO 0,50 h 138 W/m 12,2 km/h (2 Bft)
16.06.2015 20:00 16,6 C 74 % 1016,0 hPa 0,0 l/m N-NO 0,00 h 27 W/m 8,5 km/h (2 Bft)
16.06.2015 21:00 14,8 C 81 % 1016,5 hPa 0,0 l/m N-NO 0,08 h 8 W/m 4,8 km/h (1 Bft)
16.06.2015 22:00 13,9 C 81 % 1017,0 hPa 0,0 l/m N-NO 0,00 h 0 W/m 8,7 km/h (2 Bft)
16.06.2015 23:00 13,2 C 83 % 1017,5 hPa 0,0 l/m N 0,00 h 0 W/m 7,1 km/h (2 Bft)
17.06.2015 00:00 12,7 C 82 % 1017,8 hPa 0,0 l/m N 0,00 h 0 W/m 7,0 km/h (2 Bft)
17.06.2015 01:00 12,3 C 82 % 1018,0 hPa 0,0 l/m N 0,00 h 0 W/m 7,2 km/h (2 Bft)
17.06.2015 02:00 12,4 C 80 % 1018,1 hPa 0,0 l/m N 0,00 h 0 W/m 10,6 km/h (2 Bft)
17.06.2015 03:00 12,3 C 79 % 1018,2 hPa 0,0 l/m N-NO 0,00 h 0 W/m 10,8 km/h (2 Bft)
17.06.2015 04:00 12,2 C 78 % 1018,4 hPa 0,0 l/m N-NO 0,00 h 0 W/m 11,0 km/h (2 Bft)
17.06.2015 05:00 11,8 C 80 % 1018,9 hPa 0,0 l/m N-NO 0,00 h 8 W/m 12,1 km/h (2 Bft)
17.06.2015 06:00 11,4 C 81 % 1019,4 hPa 0,0 l/m NO 0,00 h 36 W/m 12,2 km/h (2 Bft)
17.06.2015 07:00 11,8 C 79 % 1019,5 hPa 0,0 l/m NO 0,67 h 198 W/m 15,3 km/h (3 Bft)
17.06.2015 08:00 12,0 C 79 % 1019,7 hPa 0,0 l/m O-NO 0,08 h 171 W/m 11,7 km/h (2 Bft)
17.06.2015 09:00 13,2 C 77 % 1020,0 hPa 0,0 l/m O-NO 0,67 h 394 W/m 10,2 km/h (2 Bft)
17.06.2015 10:00 14,8 C 74 % 1020,1 hPa 0,0 l/m NO 0,83 h 617 W/m 10,9 km/h (2 Bft)
17.06.2015 11:00 15,6 C 74 % 1020,0 hPa 0,0 l/m NO 0,50 h 543 W/m 12,0 km/h (2 Bft)
17.06.2015 12:00 16,4 C 73 % 1019,8 hPa 0,0 l/m NO 0,33 h 475 W/m 10,8 km/h (2 Bft)
17.06.2015 13:00 17,9 C 67 % 1019,9 hPa 0,0 l/m O-NO 0,67 h 775 W/m 12,6 km/h (3 Bft)
17.06.2015 14:00 18,5 C 62 % 1019,5 hPa 0,0 l/m O 0,42 h 541 W/m 11,6 km/h (2 Bft)
17.06.2015 15:00 18,8 C 59 % 1019,4 hPa 0,0 l/m NO 0,50 h 521 W/m 9,9 km/h (2 Bft)
17.06.2015 16:00 19,5 C 57 % 1019,0 hPa 0,0 l/m N 0,50 h 409 W/m 11,5 km/h (2 Bft)
17.06.2015 17:00 19,8 C 57 % 1018,6 hPa 0,0 l/m N 0,67 h 483 W/m 9,5 km/h (2 Bft)
17.06.2015 18:00 18,9 C 60 % 1018,5 hPa 0,0 l/m N 0,25 h 164 W/m 7,4 km/h (2 Bft)
17.06.2015 19:00 18,2 C 63 % 1018,4 hPa 0,0 l/m N 0,00 h 104 W/m 5,5 km/h (1 Bft)
17.06.2015 20:00 16,8 C 77 % 1018,5 hPa 0,0 l/m N 0,00 h 33 W/m 0,3 km/h (0 Bft)
17.06.2015 21:00 15,0 C 83 % 1018,6 hPa 0,0 l/m N 0,00 h 8 W/m 0,3 km/h (0 Bft)
17.06.2015 22:00 13,5 C 85 % 1019,0 hPa 0,0 l/m N 0,00 h 0 W/m 0,5 km/h (0 Bft)
17.06.2015 23:00 12,3 C 88 % 1018,9 hPa 0,0 l/m N 0,00 h 0 W/m 0,0 km/h (0 Bft)
18.06.2015 00:00 11,7 C 90 % 1019,0 hPa 0,0 l/m N 0,00 h 0 W/m 0,0 km/h (0 Bft)
18.06.2015 01:00 11,8 C 91 % 1018,7 hPa 0,0 l/m N 0,00 h 0 W/m 0,0 km/h (0 Bft)
18.06.2015 02:00 11,6 C 91 % 1018,3 hPa 0,0 l/m N 0,00 h 0 W/m 0,0 km/h (0 Bft)
18.06.2015 03:00 11,4 C 92 % 1017,9 hPa 0,0 l/m N 0,00 h 0 W/m 0,0 km/h (0 Bft)
18.06.2015 04:00 10,7 C 95 % 1017,6 hPa 0,0 l/m N 0,00 h 0 W/m 0,0 km/h (0 Bft)
18.06.2015 05:00 10,1 C 96 % 1017,5 hPa 0,0 l/m N 0,00 h 11 W/m 0,5 km/h (0 Bft)
18.06.2015 06:00 10,9 C 93 % 1017,1 hPa 0,0 l/m W 0,08 h 52 W/m 5,6 km/h (1 Bft)
18.06.2015 07:00 13,6 C 77 % 1016,9 hPa 0,0 l/m W 0,25 h 121 W/m 12,9 km/h (3 Bft)
18.06.2015 08:00 14,4 C 80 % 1016,9 hPa 0,0 l/m SW 0,00 h 138 W/m 11,6 km/h (2 Bft)
18.06.2015 09:00 15,0 C 82 % 1016,7 hPa 0,0 l/m W-SW 0,00 h 184 W/m 15,8 km/h (3 Bft)
18.06.2015 10:00 15,9 C 74 % 1016,5 hPa 0,0 l/m W-SW 0,08 h 215 W/m 21,7 km/h (4 Bft)
18.06.2015 11:00 15,5 C 77 % 1016,3 hPa 0,0 l/m W-SW 0,00 h 156 W/m 22,9 km/h (4 Bft)
18.06.2015 12:00 14,7 C 86 % 1016,2 hPa 0,6 l/m W-SW 0,00 h 161 W/m 22,8 km/h (4 Bft)
18.06.2015 13:00 14,5 C 92 % 1016,1 hPa 0,6 l/m W-SW 0,00 h 219 W/m 22,2 km/h (4 Bft)
18.06.2015 14:00 14,4 C 94 % 1015,5 hPa 0,2 l/m W-SW 0,00 h 216 W/m 26,3 km/h (4 Bft)
18.06.2015 15:00 15,2 C 92 % 1015,3 hPa 0,0 l/m SW 0,00 h 240 W/m 21,4 km/h (4 Bft)
18.06.2015 16:00 15,6 C 94 % 1014,6 hPa 0,2 l/m W-SW 0,00 h 149 W/m 16,0 km/h (3 Bft)
18.06.2015 17:00 15,6 C 93 % 1014,1 hPa 0,0 l/m W-SW 0,00 h 112 W/m 16,4 km/h (3 Bft)
18.06.2015 18:00 15,3 C 95 % 1013,9 hPa 0,4 l/m W-SW 0,00 h 44 W/m 10,9 km/h (2 Bft)
18.06.2015 19:00 15,2 C 96 % 1013,7 hPa 0,0 l/m W-SW 0,00 h 33 W/m 12,0 km/h (2 Bft)
18.06.2015 20:00 15,2 C 97 % 1013,4 hPa 0,0 l/m SW 0,00 h 15 W/m 8,7 km/h (2 Bft)
18.06.2015 21:00 15,0 C 98 % 1013,4 hPa 3,0 l/m SW 0,00 h 5 W/m 6,0 km/h (2 Bft)
18.06.2015 22:00 14,5 C 98 % 1013,8 hPa 3,0 l/m N 0,00 h 0 W/m 9,0 km/h (2 Bft)
18.06.2015 23:00 13,3 C 98 % 1014,1 hPa 0,0 l/m N 0,00 h 0 W/m 2,7 km/h (1 Bft)
19.06.2015 00:00 13,1 C 98 % 1014,2 hPa 0,0 l/m N 0,00 h 0 W/m 0,0 km/h (0 Bft)
19.06.2015 01:00 12,7 C 98 % 1014,1 hPa 0,0 l/m N 0,00 h 0 W/m 0,4 km/h (0 Bft)
19.06.2015 02:00 12,5 C 99 % 1014,1 hPa 0,0 l/m NW 0,00 h 0 W/m 3,1 km/h (1 Bft)
19.06.2015 03:00 12,4 C 99 % 1014,0 hPa 0,0 l/m N 0,00 h 0 W/m 0,0 km/h (0 Bft)
19.06.2015 04:00 12,1 C 99 % 1014,1 hPa 0,2 l/m NW 0,00 h 0 W/m 2,1 km/h (1 Bft)
19.06.2015 05:00 12,0 C 99 % 1014,2 hPa 0,2 l/m NW 0,00 h 0 W/m 6,2 km/h (2 Bft)
19.06.2015 06:00 11,5 C 99 % 1014,6 hPa 0,2 l/m NW 0,00 h 26 W/m 8,9 km/h (2 Bft)
19.06.2015 07:00 11,2 C 98 % 1014,9 hPa 0,0 l/m N-NW 0,00 h 83 W/m 6,4 km/h (2 Bft)
19.06.2015 08:00 11,6 C 95 % 1015,1 hPa 0,0 l/m N-NW 0,00 h 123 W/m 3,2 km/h (1 Bft)
19.06.2015 09:00 12,2 C 91 % 1015,2 hPa 0,0 l/m N 0,00 h 174 W/m 5,5 km/h (1 Bft)
19.06.2015 10:00 13,8 C 85 % 1015,3 hPa 0,0 l/m N 0,50 h 463 W/m 13,0 km/h (3 Bft)
19.06.2015 11:00 14,8 C 76 % 1015,2 hPa 0,0 l/m N-NW 0,67 h 619 W/m 14,8 km/h (3 Bft)
19.06.2015 12:00 16,4 C 67 % 1015,4 hPa 0,0 l/m N-NW 0,75 h 808 W/m 19,4 km/h (3 Bft)
19.06.2015 13:00 16,7 C 61 % 1015,6 hPa 0,0 l/m N-NO 0,58 h 747 W/m 18,0 km/h (3 Bft)
19.06.2015 14:00 17,1 C 62 % 1015,5 hPa 0,0 l/m N 0,67 h 816 W/m 18,2 km/h (3 Bft)
19.06.2015 15:00 17,5 C 60 % 1015,4 hPa 0,0 l/m N-NW 0,92 h 828 W/m 19,0 km/h (3 Bft)
19.06.2015 16:00 16,5 C 61 % 1015,4 hPa 0,0 l/m W-NW 0,08 h 286 W/m 18,5 km/h (3 Bft)
19.06.2015 17:00 16,6 C 56 % 1015,6 hPa 0,0 l/m N-NW 0,58 h 422 W/m 19,0 km/h (3 Bft)
19.06.2015 18:00 16,0 C 59 % 1015,7 hPa 0,0 l/m N-NW 0,42 h 205 W/m 15,4 km/h (3 Bft)
19.06.2015 19:00 14,7 C 65 % 1016,0 hPa 0,0 l/m N 0,00 h 45 W/m 11,2 km/h (2 Bft)
19.06.2015 20:00 13,8 C 69 % 1016,2 hPa 0,0 l/m N-NW 0,00 h 14 W/m 9,0 km/h (2 Bft)
19.06.2015 21:00 13,1 C 73 % 1016,4 hPa 0,0 l/m N-NW 0,00 h 0 W/m 3,1 km/h (1 Bft)
19.06.2015 22:00 12,4 C 80 % 1016,8 hPa 0,0 l/m N 0,00 h 0 W/m 0,3 km/h (0 Bft)
19.06.2015 23:00 11,9 C 85 % 1016,7 hPa 0,0 l/m N 0,00 h 0 W/m 0,1 km/h (0 Bft)
20.06.2015 00:00 11,6 C 87 % 1016,7 hPa 0,0 l/m N-NW 0,00 h 0 W/m 1,7 km/h (1 Bft)
20.06.2015 01:00 11,6 C 85 % 1016,5 hPa 0,0 l/m N 0,00 h 0 W/m 1,3 km/h (1 Bft)
20.06.2015 02:00 11,4 C 87 % 1016,5 hPa 0,0 l/m N 0,00 h 0 W/m 0,5 km/h (0 Bft)
20.06.2015 03:00 11,2 C 89 % 1016,1 hPa 0,0 l/m N 0,00 h 0 W/m 2,0 km/h (1 Bft)
20.06.2015 04:00 11,0 C 90 % 1015,9 hPa 0,0 l/m N 0,00 h 0 W/m 1,2 km/h (1 Bft)
20.06.2015 05:00 10,9 C 90 % 1015,7 hPa 0,2 l/m N-NW 0,00 h 5 W/m 2,0 km/h (1 Bft)
20.06.2015 06:00 10,5 C 93 % 1015,8 hPa 0,8 l/m W-NW 0,00 h 13 W/m 9,4 km/h (2 Bft)
20.06.2015 07:00 10,1 C 95 % 1016,2 hPa 1,8 l/m N 0,00 h 26 W/m 7,5 km/h (2 Bft)
20.06.2015 08:00 10,0 C 96 % 1016,6 hPa 0,2 l/m N 0,00 h 121 W/m 2,8 km/h (1 Bft)
20.06.2015 09:00 11,3 C 90 % 1016,9 hPa 0,0 l/m W-NW 0,25 h 303 W/m 12,6 km/h (3 Bft)
20.06.2015 10:00 12,7 C 79 % 1017,1 hPa 0,0 l/m N-NW 0,50 h 371 W/m 14,2 km/h (3 Bft)
20.06.2015 11:00 13,7 C 74 % 1017,2 hPa 0,0 l/m W-NW 0,08 h 351 W/m 15,7 km/h (3 Bft)
20.06.2015 12:00 13,9 C 71 % 1017,1 hPa 0,0 l/m N-NW 0,00 h 328 W/m 16,9 km/h (3 Bft)
20.06.2015 13:00 13,6 C 73 % 1017,4 hPa 0,0 l/m N 0,00 h 277 W/m 15,7 km/h (3 Bft)
20.06.2015 14:00 14,0 C 71 % 1017,5 hPa 0,0 l/m N-NW 0,08 h 330 W/m 16,5 km/h (3 Bft)
20.06.2015 15:00 13,9 C 71 % 1017,5 hPa 0,0 l/m NW 0,08 h 278 W/m 15,4 km/h (3 Bft)
20.06.2015 16:00 13,0 C 79 % 1017,9 hPa 0,8 l/m N-NO 0,08 h 267 W/m 18,1 km/h (3 Bft)
20.06.2015 17:00 13,2 C 81 % 1017,8 hPa 0,0 l/m N 0,42 h 304 W/m 14,8 km/h (3 Bft)
20.06.2015 18:00 13,4 C 77 % 1017,7 hPa 0,0 l/m N 0,17 h 180 W/m 11,6 km/h (2 Bft)
20.06.2015 19:00 11,3 C 88 % 1018,3 hPa 1,2 l/m N-NO 0,00 h 34 W/m 10,2 km/h (2 Bft)
20.06.2015 20:00 10,7 C 92 % 1018,6 hPa 0,0 l/m N 0,00 h 32 W/m 0,3 km/h (0 Bft)
20.06.2015 21:00 10,5 C 94 % 1019,2 hPa 0,0 l/m N 0,00 h 5 W/m 0,1 km/h (0 Bft)
20.06.2015 22:00 10,2 C 94 % 1019,6 hPa 0,0 l/m N 0,00 h 0 W/m 1,1 km/h (0 Bft)
20.06.2015 23:00 10,5 C 92 % 1019,7 hPa 0,0 l/m N 0,00 h 0 W/m 0,7 km/h (0 Bft)
21.06.2015 00:00 10,6 C 92 % 1019,6 hPa 0,0 l/m N 0,00 h 0 W/m 0,0 km/h (0 Bft)
21.06.2015 01:00 9,8 C 94 % 1019,3 hPa 0,0 l/m N 0,00 h 0 W/m 0,0 km/h (0 Bft)
21.06.2015 02:00 9,1 C 96 % 1018,9 hPa 0,0 l/m N 0,00 h 0 W/m 0,0 km/h (0 Bft)
21.06.2015 03:00 8,2 C 96 % 1018,7 hPa 0,0 l/m N 0,00 h 0 W/m 0,0 km/h (0 Bft)
21.06.2015 04:00 8,0 C 97 % 1018,5 hPa 0,2 l/m N 0,00 h 0 W/m 0,4 km/h (0 Bft)
21.06.2015 05:00 8,5 C 98 % 1018,4 hPa 0,0 l/m N 0,00 h 8 W/m 0,0 km/h (0 Bft)
21.06.2015 06:00 9,0 C 98 % 1018,4 hPa 0,0 l/m N 0,00 h 31 W/m 0,0 km/h (0 Bft)
21.06.2015 07:00 10,1 C 96 % 1018,4 hPa 0,0 l/m SW 0,00 h 87 W/m 4,0 km/h (1 Bft)
21.06.2015 08:00 11,1 C 91 % 1018,7 hPa 0,0 l/m SW 0,00 h 88 W/m 6,4 km/h (2 Bft)
21.06.2015 09:00 12,1 C 86 % 1018,5 hPa 0,0 l/m SW 0,00 h 218 W/m 12,6 km/h (3 Bft)
21.06.2015 10:00 13,1 C 82 % 1018,2 hPa 0,0 l/m W-SW 0,00 h 261 W/m 18,5 km/h (3 Bft)
21.06.2015 11:00 13,6 C 82 % 1018,0 hPa 0,0 l/m W-SW 0,08 h 311 W/m 19,2 km/h (3 Bft)
21.06.2015 12:00 13,1 C 86 % 1017,8 hPa 0,0 l/m SW 0,00 h 113 W/m 18,1 km/h (3 Bft)
21.06.2015 13:00 12,8 C 89 % 1017,8 hPa 0,0 l/m SW 0,00 h 100 W/m 15,6 km/h (3 Bft)
21.06.2015 14:00 13,9 C 88 % 1017,6 hPa 0,0 l/m W-SW 0,00 h 274 W/m 22,1 km/h (4 Bft)
21.06.2015 15:00 15,1 C 86 % 1017,3 hPa 0,0 l/m W-SW 0,17 h 365 W/m 21,3 km/h (4 Bft)
21.06.2015 16:00 16,4 C 83 % 1016,6 hPa 0,0 l/m SW 0,25 h 322 W/m 18,4 km/h (3 Bft)
21.06.2015 17:00 17,1 C 79 % 1016,0 hPa 0,0 l/m SW 0,33 h 287 W/m 20,0 km/h (4 Bft)
21.06.2015 18:00 17,5 C 78 % 1015,5 hPa 0,0 l/m SW 0,67 h 303 W/m 20,2 km/h (4 Bft)
21.06.2015 19:00 16,9 C 81 % 1015,2 hPa 0,0 l/m SW 0,17 h 122 W/m 17,6 km/h (3 Bft)
21.06.2015 20:00 15,7 C 86 % 1014,9 hPa 0,0 l/m SW 0,00 h 30 W/m 16,1 km/h (3 Bft)
21.06.2015 21:00 14,7 C 88 % 1014,9 hPa 0,0 l/m SW 0,00 h 8 W/m 11,4 km/h (2 Bft)
21.06.2015 22:00 14,3 C 89 % 1015,3 hPa 0,0 l/m SW 0,00 h 0 W/m 10,6 km/h (2 Bft)
21.06.2015 23:00 13,8 C 91 % 1015,2 hPa 0,0 l/m SW 0,00 h 0 W/m 8,4 km/h (2 Bft)
Min-Datum _ 21.06.15 19.06.15 15.06.15 - - - - 15.06.15
_ Min-Zeit 03:50 17:25 00:00 - - - - 00:00
Minimum _ 7,8 C 51 % 1007,7 hPa - - - - 0,0 km/h (0 Bft)
Max-Datum _ 16.06.15 18.06.15 17.06.15 16.06.15 - 16.06.15 19.06.15 18.06.15
_ Max-Zeit 17:20 05:50 10:50 00:45 - 09:35 13:15 10:15
Maximum _ 20,3 C 100 % 1020,3 hPa 3,6 l/m - 0,08 h 1155 W/m 30,6 km/h
W-SW (5 Bft)
Durchschnitt _ 14,1 C 85 % 1016,1 hPa #32,4 l/m N-NO #18:10 h 211 W/m 8,7 km/h (2 Bft)